GIA1221 OEMA-WAAA
Flight info
| Callsign | GIA1221 |
|---|---|
| Flight time | N/A |
| Altitude | 35000 |
| Route | MEDRO M872 BDB Y214 RAPMA DCT ULONO/N0486F370 DCT DAPOL L692 GISKA N569 LOTAV M300 DOLPI/N0480F390 M300 RULKA L896 SULEN P570 NIXUL DCT BINAK/N0476F410 DCT JATAM DCT GUKNO DCT TANUR DCT GURNI |
| Aircraft | B77W/H-SDE1E2E3FGHIJ4J5M1RWXY/LB1D1 |
Departure
| Time | 2026-05-07 12:37 |
|---|---|
| Airport | Prince Mohammad Bin Abdulaziz Airport (OEMA) |
Arrival
| Time | N/A |
|---|---|
| Airport | Sultan Hasanuddin International Airport (WAAA) |
| Time | Latitude | Longitude | Altitude | Speed | Heading |
|---|---|---|---|---|---|
| 2026-05-07 12:13 | 24.55385 | 39.71291 | 2146 ft | 0 kts | 78° |
| 2026-05-07 12:26 | 24.55385 | 39.71290 | 2146 ft | 1 kts | 78° |
| 2026-05-07 12:26 | 24.55379 | 39.71263 | 2145 ft | 4 kts | 78° |
| 2026-05-07 12:27 | 24.55375 | 39.71236 | 2144 ft | 3 kts | 88° |
| 2026-05-07 12:27 | 24.55376 | 39.71222 | 2141 ft | 2 kts | 114° |
| 2026-05-07 12:27 | 24.55382 | 39.71211 | 2140 ft | 2 kts | 139° |
| 2026-05-07 12:27 | 24.55391 | 39.71204 | 2142 ft | 2 kts | 154° |
| 2026-05-07 12:28 | 24.55402 | 39.71199 | 2142 ft | 2 kts | 162° |
| 2026-05-07 12:28 | 24.55411 | 39.71196 | 2142 ft | 0 kts | 167° |
| 2026-05-07 12:29 | 24.55410 | 39.71197 | 2144 ft | 1 kts | 167° |
| 2026-05-07 12:30 | 24.55395 | 39.71199 | 2141 ft | 4 kts | 170° |
| 2026-05-07 12:30 | 24.55359 | 39.71206 | 2142 ft | 7 kts | 170° |
| 2026-05-07 12:30 | 24.55306 | 39.71216 | 2145 ft | 8 kts | 173° |
| 2026-05-07 12:30 | 24.55256 | 39.71193 | 2144 ft | 8 kts | 226° |
| 2026-05-07 12:31 | 24.55233 | 39.71134 | 2143 ft | 9 kts | 257° |
| 2026-05-07 12:31 | 24.55237 | 39.71057 | 2141 ft | 11 kts | 302° |
| 2026-05-07 12:31 | 24.55307 | 39.71023 | 2139 ft | 12 kts | 350° |
| 2026-05-07 12:31 | 24.55403 | 39.71005 | 2140 ft | 16 kts | 350° |
| 2026-05-07 12:32 | 24.55522 | 39.70981 | 2140 ft | 19 kts | 347° |
| 2026-05-07 12:32 | 24.55661 | 39.70949 | 2140 ft | 22 kts | 348° |
| 2026-05-07 12:32 | 24.55820 | 39.70915 | 2141 ft | 25 kts | 349° |
| 2026-05-07 12:32 | 24.55995 | 39.70877 | 2142 ft | 26 kts | 348° |
| 2026-05-07 12:33 | 24.56354 | 39.70799 | 2144 ft | 26 kts | 349° |
| 2026-05-07 12:33 | 24.56534 | 39.70762 | 2144 ft | 26 kts | 349° |
| 2026-05-07 12:33 | 24.56714 | 39.70723 | 2144 ft | 26 kts | 349° |
| 2026-05-07 12:34 | 24.56893 | 39.70685 | 2144 ft | 26 kts | 349° |
| 2026-05-07 12:34 | 24.57070 | 39.70647 | 2144 ft | 26 kts | 348° |
| 2026-05-07 12:34 | 24.57250 | 39.70608 | 2144 ft | 26 kts | 349° |
| 2026-05-07 12:34 | 24.57416 | 39.70573 | 2146 ft | 22 kts | 349° |
| 2026-05-07 12:35 | 24.57551 | 39.70544 | 2146 ft | 18 kts | 349° |
| 2026-05-07 12:35 | 24.57631 | 39.70516 | 2147 ft | 9 kts | 321° |
| 2026-05-07 12:35 | 24.57645 | 39.70448 | 2147 ft | 10 kts | 263° |
| 2026-05-07 12:35 | 24.57630 | 39.70377 | 2147 ft | 10 kts | 249° |
| 2026-05-07 12:36 | 24.57580 | 39.70350 | 2147 ft | 5 kts | 174° |
| 2026-05-07 12:36 | 24.57558 | 39.70355 | 2146 ft | 12 kts | 168° |
| 2026-05-07 12:36 | 24.57321 | 39.70404 | 2144 ft | 64 kts | 168° |
| 2026-05-07 12:36 | 24.56683 | 39.70539 | 2139 ft | 120 kts | 169° |
| 2026-05-07 12:37 | 24.55710 | 39.70743 | 2127 ft | 164 kts | 169° |
| 2026-05-07 12:37 | 24.54490 | 39.70998 | 2191 ft | 185 kts | 173° |
| 2026-05-07 12:37 | 24.53218 | 39.71300 | 2559 ft | 193 kts | 171° |
| 2026-05-07 12:37 | 24.51890 | 39.71585 | 3063 ft | 193 kts | 175° |
| 2026-05-07 12:38 | 24.50593 | 39.71852 | 3662 ft | 188 kts | 176° |
| 2026-05-07 12:38 | 24.49298 | 39.72114 | 4111 ft | 195 kts | 175° |
| 2026-05-07 12:38 | 24.47874 | 39.72397 | 4308 ft | 221 kts | 174° |
| 2026-05-07 12:38 | 24.46268 | 39.72731 | 4568 ft | 250 kts | 172° |
| 2026-05-07 12:39 | 24.44490 | 39.73154 | 4840 ft | 268 kts | 173° |
| 2026-05-07 12:39 | 24.42628 | 39.73525 | 5500 ft | 274 kts | 174° |
| 2026-05-07 12:39 | 24.40741 | 39.73895 | 6314 ft | 275 kts | 173° |
| 2026-05-07 12:39 | 24.38874 | 39.74274 | 7173 ft | 275 kts | 173° |
| 2026-05-07 12:40 | 24.37003 | 39.74790 | 7772 ft | 284 kts | 158° |
| 2026-05-07 12:40 | 24.35434 | 39.76122 | 8394 ft | 298 kts | 131° |
| 2026-05-07 12:40 | 24.34545 | 39.78237 | 9003 ft | 311 kts | 100° |
| 2026-05-07 12:40 | 24.34503 | 39.80114 | 9614 ft | 311 kts | 86° |
| 2026-05-07 12:41 | 24.34775 | 39.82471 | 10282 ft | 314 kts | 83° |
| 2026-05-07 12:41 | 24.35128 | 39.84894 | 10650 ft | 332 kts | 83° |
| 2026-05-07 12:41 | 24.35521 | 39.87488 | 10827 ft | 358 kts | 82° |
| 2026-05-07 12:41 | 24.35936 | 39.90277 | 11022 ft | 382 kts | 83° |
| 2026-05-07 12:42 | 24.36358 | 39.93181 | 11729 ft | 388 kts | 84° |
| 2026-05-07 12:42 | 24.36774 | 39.96108 | 12635 ft | 390 kts | 84° |
| 2026-05-07 12:42 | 24.37189 | 39.99060 | 13529 ft | 394 kts | 84° |
| 2026-05-07 12:42 | 24.37473 | 40.01079 | 14052 ft | 398 kts | 84° |
| 2026-05-07 12:43 | 24.38036 | 40.05096 | 14930 ft | 408 kts | 84° |
| 2026-05-07 12:43 | 24.38329 | 40.07194 | 15408 ft | 413 kts | 84° |
| 2026-05-07 12:43 | 24.38763 | 40.10290 | 16115 ft | 420 kts | 84° |
| 2026-05-07 12:43 | 24.39217 | 40.13522 | 16856 ft | 426 kts | 84° |
| 2026-05-07 12:44 | 24.39818 | 40.17819 | 17815 ft | 435 kts | 85° |
| 2026-05-07 12:44 | 24.40123 | 40.20003 | 18244 ft | 440 kts | 85° |
| 2026-05-07 12:44 | 24.40590 | 40.23349 | 18878 ft | 446 kts | 84° |
| 2026-05-07 12:44 | 24.41061 | 40.26726 | 19565 ft | 450 kts | 84° |
| 2026-05-07 12:45 | 24.41534 | 40.30139 | 20245 ft | 455 kts | 84° |
| 2026-05-07 12:45 | 24.42010 | 40.33595 | 20915 ft | 460 kts | 84° |
| 2026-05-07 12:45 | 24.42486 | 40.37078 | 21563 ft | 465 kts | 84° |
| 2026-05-07 12:45 | 24.42968 | 40.40608 | 22176 ft | 470 kts | 84° |
| 2026-05-07 12:46 | 24.43456 | 40.44182 | 22787 ft | 476 kts | 84° |
| 2026-05-07 12:46 | 24.43948 | 40.47786 | 23389 ft | 481 kts | 84° |
| 2026-05-07 12:46 | 24.44446 | 40.51437 | 23887 ft | 486 kts | 84° |
| 2026-05-07 12:46 | 24.44948 | 40.55121 | 24382 ft | 490 kts | 84° |
| 2026-05-07 12:47 | 24.45453 | 40.58840 | 24897 ft | 494 kts | 84° |
| 2026-05-07 12:47 | 24.45834 | 40.62591 | 25379 ft | 495 kts | 93° |
| 2026-05-07 12:47 | 24.45622 | 40.66355 | 25859 ft | 494 kts | 101° |
| 2026-05-07 12:47 | 24.45175 | 40.70108 | 26352 ft | 497 kts | 102° |
| 2026-05-07 12:48 | 24.44682 | 40.73874 | 26859 ft | 501 kts | 102° |
| 2026-05-07 12:48 | 24.44208 | 40.77678 | 27331 ft | 505 kts | 102° |
| 2026-05-07 12:48 | 24.43771 | 40.81513 | 27827 ft | 508 kts | 101° |
| 2026-05-07 12:48 | 24.43364 | 40.85376 | 28317 ft | 512 kts | 101° |
| 2026-05-07 12:49 | 24.42972 | 40.89272 | 28789 ft | 515 kts | 101° |
| 2026-05-07 12:49 | 24.42582 | 40.93190 | 29266 ft | 518 kts | 101° |
| 2026-05-07 12:49 | 24.42187 | 40.97130 | 29712 ft | 521 kts | 101° |
| 2026-05-07 12:49 | 24.41785 | 41.01092 | 30103 ft | 524 kts | 101° |
| 2026-05-07 12:50 | 24.41377 | 41.05076 | 30420 ft | 528 kts | 101° |
| 2026-05-07 12:50 | 24.40962 | 41.09091 | 30719 ft | 531 kts | 101° |
| 2026-05-07 12:50 | 24.40539 | 41.13123 | 31012 ft | 534 kts | 101° |
| 2026-05-07 12:50 | 24.40110 | 41.17181 | 31295 ft | 536 kts | 101° |
| 2026-05-07 12:51 | 24.39678 | 41.21253 | 31561 ft | 539 kts | 102° |
| 2026-05-07 12:51 | 24.39244 | 41.25342 | 31874 ft | 541 kts | 102° |
| 2026-05-07 12:51 | 24.38810 | 41.29441 | 32206 ft | 541 kts | 102° |
| 2026-05-07 12:51 | 24.38381 | 41.33487 | 32565 ft | 541 kts | 102° |
| 2026-05-07 12:52 | 24.37945 | 41.37587 | 32904 ft | 542 kts | 102° |
| 2026-05-07 12:52 | 24.37507 | 41.41691 | 33228 ft | 542 kts | 102° |
| 2026-05-07 12:52 | 24.37068 | 41.45796 | 33548 ft | 543 kts | 103° |
| 2026-05-07 12:52 | 24.36626 | 41.49913 | 33868 ft | 543 kts | 103° |
| 2026-05-07 12:53 | 24.36183 | 41.54025 | 34156 ft | 543 kts | 103° |
| 2026-05-07 12:53 | 24.35740 | 41.58141 | 34452 ft | 543 kts | 103° |
| 2026-05-07 12:53 | 24.35296 | 41.62244 | 34765 ft | 542 kts | 103° |
| 2026-05-07 12:53 | 24.34851 | 41.66351 | 34917 ft | 545 kts | 103° |
| 2026-05-07 12:54 | 24.33960 | 41.74558 | 34962 ft | 537 kts | 104° |
| 2026-05-07 12:54 | 24.32979 | 41.82610 | 34962 ft | 527 kts | 108° |
| 2026-05-07 12:55 | 24.31123 | 41.90288 | 34979 ft | 519 kts | 115° |
| 2026-05-07 12:55 | 24.29051 | 41.97868 | 34985 ft | 520 kts | 115° |
| 2026-05-07 12:56 | 24.27004 | 42.05482 | 34983 ft | 522 kts | 114° |
| 2026-05-07 12:56 | 24.24981 | 42.13129 | 34987 ft | 523 kts | 114° |
| 2026-05-07 12:57 | 24.22957 | 42.20794 | 34996 ft | 524 kts | 114° |
| 2026-05-07 12:57 | 24.20935 | 42.28426 | 34996 ft | 525 kts | 114° |
| 2026-05-07 12:58 | 24.18881 | 42.36154 | 35000 ft | 526 kts | 114° |
| 2026-05-07 12:58 | 24.16829 | 42.43853 | 35011 ft | 526 kts | 114° |
| 2026-05-07 12:59 | 24.14787 | 42.51500 | 35006 ft | 527 kts | 114° |
| 2026-05-07 12:59 | 24.12730 | 42.59189 | 35013 ft | 526 kts | 114° |
| 2026-05-07 13:00 | 24.10671 | 42.66867 | 35009 ft | 526 kts | 114° |
| 2026-05-07 13:00 | 24.08608 | 42.74545 | 35016 ft | 526 kts | 114° |
| 2026-05-07 13:01 | 24.06544 | 42.82218 | 35023 ft | 525 kts | 114° |
| 2026-05-07 13:01 | 24.04476 | 42.89882 | 35022 ft | 525 kts | 114° |
| 2026-05-07 13:02 | 24.02402 | 42.97536 | 35015 ft | 525 kts | 114° |
| 2026-05-07 13:02 | 24.00328 | 43.05186 | 35013 ft | 524 kts | 114° |
| 2026-05-07 13:03 | 23.98257 | 43.12825 | 35016 ft | 523 kts | 114° |
| 2026-05-07 13:03 | 23.96185 | 43.20453 | 35005 ft | 523 kts | 114° |
| 2026-05-07 13:04 | 23.94124 | 43.28023 | 35014 ft | 522 kts | 114° |
| 2026-05-07 13:04 | 23.92033 | 43.35683 | 35005 ft | 523 kts | 114° |
| 2026-05-07 13:05 | 23.89968 | 43.43235 | 34994 ft | 522 kts | 114° |
| 2026-05-07 13:05 | 23.87886 | 43.50834 | 34991 ft | 522 kts | 114° |
| 2026-05-07 13:06 | 23.85800 | 43.58432 | 34985 ft | 522 kts | 114° |
| 2026-05-07 13:06 | 23.83713 | 43.66021 | 34978 ft | 521 kts | 114° |
| 2026-05-07 13:07 | 23.81624 | 43.73601 | 34972 ft | 521 kts | 114° |
| 2026-05-07 13:07 | 23.79532 | 43.81186 | 34963 ft | 521 kts | 114° |
| 2026-05-07 13:08 | 23.77581 | 43.88822 | 34950 ft | 526 kts | 108° |
| 2026-05-07 13:08 | 23.76681 | 43.96793 | 34962 ft | 532 kts | 100° |
| 2026-05-07 13:09 | 23.76155 | 44.04848 | 34945 ft | 532 kts | 99° |
| 2026-05-07 13:09 | 23.75603 | 44.12894 | 34941 ft | 531 kts | 100° |
| 2026-05-07 13:10 | 23.75006 | 44.20921 | 34951 ft | 530 kts | 100° |
| 2026-05-07 13:10 | 23.74397 | 44.28878 | 34946 ft | 530 kts | 100° |
| 2026-05-07 13:11 | 23.73784 | 44.36893 | 34955 ft | 530 kts | 100° |
| 2026-05-07 13:11 | 23.73169 | 44.44912 | 34956 ft | 530 kts | 101° |
| 2026-05-07 13:12 | 23.72544 | 44.52928 | 34947 ft | 531 kts | 101° |
| 2026-05-07 13:12 | 23.71918 | 44.60960 | 34954 ft | 531 kts | 100° |
| 2026-05-07 13:13 | 23.71289 | 44.68992 | 34949 ft | 532 kts | 100° |
| 2026-05-07 13:13 | 23.70659 | 44.77031 | 34948 ft | 532 kts | 100° |
| 2026-05-07 13:14 | 23.70024 | 44.85073 | 34949 ft | 532 kts | 100° |
| 2026-05-07 13:14 | 23.69379 | 44.93120 | 34952 ft | 533 kts | 100° |
| 2026-05-07 13:15 | 23.68726 | 45.01173 | 34948 ft | 533 kts | 100° |
| 2026-05-07 13:15 | 23.68070 | 45.09230 | 34946 ft | 534 kts | 100° |
| 2026-05-07 13:16 | 23.67415 | 45.17246 | 34945 ft | 534 kts | 100° |
| 2026-05-07 13:16 | 23.66751 | 45.25314 | 34941 ft | 534 kts | 100° |
| 2026-05-07 13:17 | 23.66082 | 45.33386 | 34940 ft | 534 kts | 100° |
| 2026-05-07 13:17 | 23.65412 | 45.41457 | 34934 ft | 534 kts | 100° |
| 2026-05-07 13:18 | 23.64738 | 45.49535 | 34927 ft | 535 kts | 100° |
| 2026-05-07 13:18 | 23.64062 | 45.57606 | 34923 ft | 534 kts | 100° |
| 2026-05-07 13:19 | 23.63380 | 45.65669 | 34919 ft | 534 kts | 100° |
| 2026-05-07 13:19 | 23.62692 | 45.73715 | 34920 ft | 533 kts | 100° |
| 2026-05-07 13:20 | 23.62003 | 45.81762 | 34914 ft | 533 kts | 100° |
| 2026-05-07 13:20 | 23.61312 | 45.89808 | 34913 ft | 533 kts | 100° |
| 2026-05-07 13:21 | 23.60613 | 45.97847 | 34917 ft | 532 kts | 100° |
| 2026-05-07 13:21 | 23.59919 | 46.05830 | 34918 ft | 532 kts | 100° |
| 2026-05-07 13:22 | 23.59219 | 46.13860 | 34916 ft | 532 kts | 100° |
| 2026-05-07 13:22 | 23.58514 | 46.21896 | 34918 ft | 533 kts | 100° |
| 2026-05-07 13:23 | 23.57801 | 46.29931 | 34918 ft | 532 kts | 100° |
| 2026-05-07 13:23 | 23.57091 | 46.37936 | 34924 ft | 531 kts | 100° |
| 2026-05-07 13:24 | 23.56376 | 46.45958 | 34920 ft | 531 kts | 100° |
| 2026-05-07 13:24 | 23.55656 | 46.53961 | 34913 ft | 530 kts | 100° |
| 2026-05-07 13:25 | 23.54918 | 46.61945 | 34918 ft | 529 kts | 100° |
| 2026-05-07 13:25 | 23.54177 | 46.69923 | 34912 ft | 529 kts | 100° |
| 2026-05-07 13:26 | 23.53434 | 46.77899 | 34905 ft | 529 kts | 100° |
| 2026-05-07 13:26 | 23.52690 | 46.85875 | 34903 ft | 529 kts | 100° |
| 2026-05-07 13:27 | 23.51941 | 46.93854 | 34887 ft | 529 kts | 100° |
| 2026-05-07 13:27 | 23.51189 | 47.01820 | 34882 ft | 529 kts | 100° |
| 2026-05-07 13:28 | 23.50434 | 47.09795 | 34878 ft | 529 kts | 100° |
| 2026-05-07 13:28 | 23.49674 | 47.17765 | 34874 ft | 529 kts | 100° |
| 2026-05-07 13:29 | 23.48909 | 47.25744 | 34869 ft | 529 kts | 100° |
| 2026-05-07 13:29 | 23.48142 | 47.33707 | 34864 ft | 529 kts | 100° |
| 2026-05-07 13:30 | 23.47373 | 47.41664 | 34866 ft | 528 kts | 100° |
| 2026-05-07 13:30 | 23.46601 | 47.49610 | 34856 ft | 527 kts | 100° |
| 2026-05-07 13:31 | 23.45823 | 47.57554 | 34850 ft | 527 kts | 100° |
| 2026-05-07 13:31 | 23.45051 | 47.65432 | 34844 ft | 526 kts | 100° |
| 2026-05-07 13:32 | 23.44275 | 47.73354 | 34839 ft | 526 kts | 100° |
| 2026-05-07 13:32 | 23.43496 | 47.81268 | 34834 ft | 526 kts | 100° |
| 2026-05-07 13:33 | 23.42714 | 47.89177 | 34843 ft | 525 kts | 100° |
| 2026-05-07 13:33 | 23.41927 | 47.97085 | 34823 ft | 525 kts | 100° |
| 2026-05-07 13:34 | 23.40744 | 48.08918 | 34814 ft | 525 kts | 100° |
| 2026-05-07 13:35 | 23.40082 | 48.15500 | 34803 ft | 525 kts | 100° |
| 2026-05-07 13:35 | 23.39287 | 48.23391 | 34806 ft | 525 kts | 100° |
| 2026-05-07 13:36 | 23.38221 | 48.31212 | 34794 ft | 519 kts | 109° |
| 2026-05-07 13:36 | 23.35662 | 48.38473 | 34808 ft | 510 kts | 122° |
| 2026-05-07 13:37 | 23.31956 | 48.44983 | 34809 ft | 505 kts | 128° |
| 2026-05-07 13:37 | 23.28101 | 48.51385 | 34798 ft | 506 kts | 128° |
| 2026-05-07 13:38 | 23.24272 | 48.57818 | 34794 ft | 507 kts | 128° |
| 2026-05-07 13:38 | 23.20469 | 48.64276 | 34792 ft | 508 kts | 127° |
| 2026-05-07 13:39 | 23.16668 | 48.70746 | 34789 ft | 508 kts | 127° |
| 2026-05-07 13:39 | 23.12888 | 48.77172 | 34784 ft | 508 kts | 127° |
| 2026-05-07 13:40 | 23.09078 | 48.83634 | 34785 ft | 508 kts | 127° |
| 2026-05-07 13:40 | 23.05268 | 48.90086 | 34778 ft | 508 kts | 127° |
| 2026-05-07 13:41 | 23.01456 | 48.96532 | 34779 ft | 507 kts | 127° |
| 2026-05-07 13:41 | 22.97640 | 49.02977 | 34775 ft | 507 kts | 127° |
| 2026-05-07 13:42 | 22.93828 | 49.09409 | 34774 ft | 507 kts | 127° |
| 2026-05-07 13:42 | 22.90016 | 49.15832 | 34772 ft | 507 kts | 127° |
| 2026-05-07 13:43 | 22.86198 | 49.22257 | 34776 ft | 507 kts | 127° |
| 2026-05-07 13:43 | 22.82377 | 49.28679 | 34770 ft | 507 kts | 127° |
| 2026-05-07 13:44 | 22.78554 | 49.35098 | 34771 ft | 507 kts | 127° |
| 2026-05-07 13:44 | 22.74753 | 49.41472 | 34767 ft | 507 kts | 127° |
| 2026-05-07 13:45 | 22.70926 | 49.47881 | 34768 ft | 507 kts | 127° |
| 2026-05-07 13:45 | 22.67092 | 49.54294 | 34769 ft | 507 kts | 127° |
| 2026-05-07 13:46 | 22.63259 | 49.60696 | 34767 ft | 507 kts | 127° |
| 2026-05-07 13:46 | 22.59425 | 49.67093 | 34764 ft | 506 kts | 127° |
| 2026-05-07 13:47 | 22.55590 | 49.73485 | 34766 ft | 506 kts | 127° |
| 2026-05-07 13:47 | 22.51758 | 49.79864 | 34763 ft | 506 kts | 126° |
| 2026-05-07 13:48 | 22.47922 | 49.86240 | 34762 ft | 505 kts | 126° |
| 2026-05-07 13:48 | 22.44087 | 49.92608 | 34762 ft | 505 kts | 126° |
| 2026-05-07 13:49 | 22.40252 | 49.98969 | 34762 ft | 505 kts | 126° |
| 2026-05-07 13:49 | 22.36420 | 50.05318 | 34759 ft | 504 kts | 126° |
| 2026-05-07 13:50 | 22.32583 | 50.11666 | 34762 ft | 504 kts | 126° |
| 2026-05-07 13:50 | 22.28776 | 50.17957 | 34762 ft | 504 kts | 126° |
| 2026-05-07 13:51 | 22.24920 | 50.24323 | 34761 ft | 504 kts | 126° |
| 2026-05-07 13:51 | 22.21106 | 50.30612 | 34760 ft | 503 kts | 126° |
| 2026-05-07 13:52 | 22.17271 | 50.36928 | 34760 ft | 503 kts | 126° |
| 2026-05-07 13:52 | 22.13433 | 50.43243 | 34756 ft | 503 kts | 126° |
| 2026-05-07 13:53 | 22.09595 | 50.49552 | 34756 ft | 503 kts | 126° |
| 2026-05-07 13:53 | 22.05759 | 50.55855 | 34759 ft | 503 kts | 126° |
| 2026-05-07 13:54 | 22.02033 | 50.62227 | 34752 ft | 504 kts | 118° |
| 2026-05-07 13:54 | 21.99841 | 50.69412 | 34752 ft | 508 kts | 102° |
| 2026-05-07 13:55 | 21.99319 | 50.77027 | 34762 ft | 511 kts | 93° |
| 2026-05-07 13:55 | 21.99080 | 50.84674 | 34755 ft | 511 kts | 93° |
| 2026-05-07 13:56 | 21.98804 | 50.92334 | 34756 ft | 512 kts | 94° |
| 2026-05-07 13:56 | 21.98478 | 50.99989 | 34758 ft | 512 kts | 94° |
| 2026-05-07 13:57 | 21.98130 | 51.07642 | 34756 ft | 511 kts | 94° |
| 2026-05-07 13:57 | 21.97778 | 51.15295 | 34761 ft | 511 kts | 94° |
| 2026-05-07 13:58 | 21.97426 | 51.22937 | 34808 ft | 513 kts | 94° |
| 2026-05-07 13:58 | 21.97248 | 51.26777 | 35106 ft | 512 kts | 94° |
| 2026-05-07 13:58 | 21.97072 | 51.30595 | 35509 ft | 509 kts | 94° |
| 2026-05-07 13:58 | 21.96895 | 51.34386 | 35927 ft | 506 kts | 94° |
| 2026-05-07 13:59 | 21.96721 | 51.38110 | 36307 ft | 503 kts | 94° |
| 2026-05-07 13:59 | 21.96543 | 51.41873 | 36630 ft | 502 kts | 94° |
| 2026-05-07 13:59 | 21.96365 | 51.45636 | 36709 ft | 505 kts | 94° |
| 2026-05-07 14:00 | 21.96004 | 51.53190 | 36741 ft | 504 kts | 94° |
| 2026-05-07 14:00 | 21.95642 | 51.60707 | 36754 ft | 501 kts | 94° |
| 2026-05-07 14:01 | 21.95279 | 51.68190 | 36761 ft | 500 kts | 94° |
| 2026-05-07 14:01 | 21.94912 | 51.75661 | 36756 ft | 499 kts | 94° |
| 2026-05-07 14:02 | 21.94542 | 51.83120 | 36758 ft | 499 kts | 94° |
| 2026-05-07 14:02 | 21.94169 | 51.90587 | 36758 ft | 500 kts | 94° |
| 2026-05-07 14:03 | 21.93792 | 51.98063 | 36756 ft | 500 kts | 94° |
| 2026-05-07 14:03 | 21.93411 | 52.05551 | 36758 ft | 501 kts | 94° |
| 2026-05-07 14:04 | 21.93026 | 52.13052 | 36762 ft | 502 kts | 94° |
| 2026-05-07 14:04 | 21.92637 | 52.20558 | 36761 ft | 502 kts | 94° |
| 2026-05-07 14:05 | 21.92245 | 52.28068 | 36764 ft | 502 kts | 94° |
| 2026-05-07 14:05 | 21.91849 | 52.35583 | 36761 ft | 502 kts | 94° |
| 2026-05-07 14:06 | 21.91453 | 52.43039 | 36765 ft | 502 kts | 94° |
| 2026-05-07 14:06 | 21.91050 | 52.50544 | 36764 ft | 502 kts | 94° |
| 2026-05-07 14:07 | 21.90645 | 52.58038 | 36763 ft | 501 kts | 94° |
| 2026-05-07 14:07 | 21.90237 | 52.65529 | 36771 ft | 501 kts | 94° |
| 2026-05-07 14:08 | 21.89824 | 52.73017 | 36768 ft | 500 kts | 94° |
| 2026-05-07 14:08 | 21.89410 | 52.80491 | 36771 ft | 500 kts | 94° |
| 2026-05-07 14:09 | 21.88993 | 52.87965 | 36766 ft | 500 kts | 94° |
| 2026-05-07 14:09 | 21.88571 | 52.95437 | 36765 ft | 500 kts | 94° |
| 2026-05-07 14:10 | 21.88147 | 53.02910 | 36763 ft | 500 kts | 94° |
| 2026-05-07 14:10 | 21.87719 | 53.10378 | 36777 ft | 500 kts | 94° |
| 2026-05-07 14:11 | 21.87288 | 53.17844 | 36780 ft | 500 kts | 94° |
| 2026-05-07 14:11 | 21.86854 | 53.25318 | 36781 ft | 500 kts | 94° |
| 2026-05-07 14:12 | 21.86416 | 53.32790 | 36768 ft | 500 kts | 94° |
| 2026-05-07 14:12 | 21.85977 | 53.40219 | 36776 ft | 500 kts | 94° |
| 2026-05-07 14:13 | 21.85532 | 53.47689 | 36777 ft | 500 kts | 94° |
| 2026-05-07 14:13 | 21.85080 | 53.55219 | 36781 ft | 500 kts | 94° |
| 2026-05-07 14:14 | 21.84632 | 53.62646 | 36779 ft | 501 kts | 94° |
| 2026-05-07 14:14 | 21.84177 | 53.70122 | 36781 ft | 501 kts | 94° |
| 2026-05-07 14:15 | 21.83718 | 53.77594 | 36787 ft | 501 kts | 94° |
| 2026-05-07 14:15 | 21.83256 | 53.85067 | 36784 ft | 501 kts | 95° |
| 2026-05-07 14:16 | 21.82791 | 53.92547 | 36785 ft | 500 kts | 95° |
| 2026-05-07 14:16 | 21.82323 | 54.00003 | 36785 ft | 500 kts | 95° |
| 2026-05-07 14:17 | 21.81851 | 54.07476 | 36783 ft | 500 kts | 95° |
| 2026-05-07 14:17 | 21.81376 | 54.14942 | 36782 ft | 500 kts | 95° |
| 2026-05-07 14:18 | 21.80898 | 54.22396 | 36786 ft | 500 kts | 95° |
| 2026-05-07 14:18 | 21.80417 | 54.29857 | 36788 ft | 500 kts | 95° |
| 2026-05-07 14:19 | 21.79933 | 54.37313 | 36785 ft | 499 kts | 95° |
| 2026-05-07 14:19 | 21.79452 | 54.44660 | 36787 ft | 499 kts | 95° |
| 2026-05-07 14:20 | 21.78961 | 54.52118 | 36792 ft | 499 kts | 95° |
| 2026-05-07 14:20 | 21.78467 | 54.59572 | 36790 ft | 499 kts | 95° |
| 2026-05-07 14:21 | 21.77969 | 54.67024 | 36792 ft | 499 kts | 95° |
| 2026-05-07 14:21 | 21.77469 | 54.74469 | 36793 ft | 499 kts | 95° |
| 2026-05-07 14:22 | 21.76964 | 54.81925 | 36792 ft | 500 kts | 95° |
| 2026-05-07 14:22 | 21.76457 | 54.89378 | 36791 ft | 500 kts | 95° |
| 2026-05-07 14:23 | 21.75946 | 54.96833 | 36795 ft | 500 kts | 95° |
| 2026-05-07 14:23 | 21.75434 | 55.04241 | 36793 ft | 500 kts | 95° |
| 2026-05-07 14:24 | 21.74917 | 55.11694 | 36792 ft | 500 kts | 95° |
| 2026-05-07 14:24 | 21.74396 | 55.19139 | 36795 ft | 499 kts | 95° |
| 2026-05-07 14:25 | 21.73873 | 55.26591 | 36800 ft | 499 kts | 95° |
| 2026-05-07 14:25 | 21.73346 | 55.34033 | 36801 ft | 499 kts | 95° |
| 2026-05-07 14:26 | 21.72816 | 55.41481 | 36802 ft | 499 kts | 95° |
| 2026-05-07 14:26 | 21.72284 | 55.48931 | 36800 ft | 499 kts | 95° |
| 2026-05-07 14:27 | 21.71840 | 55.55113 | 36804 ft | 499 kts | 95° |
| 2026-05-07 14:27 | 21.71276 | 55.63817 | 36804 ft | 499 kts | 94° |
| 2026-05-07 14:28 | 21.70866 | 55.71213 | 36805 ft | 499 kts | 94° |
| 2026-05-07 14:28 | 21.70437 | 55.78663 | 36808 ft | 499 kts | 94° |
| 2026-05-07 14:29 | 21.70066 | 55.84901 | 36806 ft | 499 kts | 94° |
| 2026-05-07 14:29 | 21.69624 | 55.92298 | 36808 ft | 499 kts | 94° |
| 2026-05-07 14:30 | 21.69180 | 55.99753 | 36813 ft | 499 kts | 94° |
| 2026-05-07 14:30 | 21.68736 | 56.07205 | 36814 ft | 500 kts | 94° |
| 2026-05-07 14:31 | 21.68288 | 56.14660 | 36818 ft | 500 kts | 94° |
| 2026-05-07 14:31 | 21.67836 | 56.22123 | 36816 ft | 500 kts | 94° |
| 2026-05-07 14:32 | 21.67381 | 56.29593 | 36818 ft | 500 kts | 94° |
| 2026-05-07 14:32 | 21.66922 | 56.37058 | 36820 ft | 501 kts | 94° |
| 2026-05-07 14:33 | 21.66460 | 56.44517 | 36819 ft | 501 kts | 94° |
| 2026-05-07 14:33 | 21.65994 | 56.51986 | 36821 ft | 501 kts | 94° |
| 2026-05-07 14:34 | 21.65528 | 56.59417 | 36826 ft | 501 kts | 95° |
| 2026-05-07 14:34 | 21.65056 | 56.66885 | 36824 ft | 501 kts | 95° |
| 2026-05-07 14:35 | 21.64579 | 56.74362 | 36829 ft | 501 kts | 95° |
| 2026-05-07 14:35 | 21.64101 | 56.81828 | 36827 ft | 501 kts | 95° |
| 2026-05-07 14:36 | 21.63619 | 56.89302 | 36829 ft | 501 kts | 95° |
| 2026-05-07 14:36 | 21.63134 | 56.96768 | 36828 ft | 501 kts | 95° |
| 2026-05-07 14:37 | 21.62647 | 57.04241 | 36830 ft | 501 kts | 95° |
| 2026-05-07 14:37 | 21.61907 | 57.15440 | 36832 ft | 501 kts | 95° |
| 2026-05-07 14:38 | 21.61404 | 57.22909 | 36832 ft | 501 kts | 95° |
| 2026-05-07 14:38 | 21.60902 | 57.30377 | 36832 ft | 501 kts | 95° |
| 2026-05-07 14:39 | 21.60398 | 57.37846 | 36829 ft | 501 kts | 95° |
| 2026-05-07 14:39 | 21.59892 | 57.45318 | 36832 ft | 501 kts | 95° |
| 2026-05-07 14:40 | 21.59382 | 57.52786 | 36828 ft | 501 kts | 95° |
| 2026-05-07 14:40 | 21.58871 | 57.60258 | 36832 ft | 501 kts | 95° |
| 2026-05-07 14:41 | 21.58130 | 57.67700 | 36835 ft | 501 kts | 102° |
| 2026-05-07 14:41 | 21.56327 | 57.74856 | 36831 ft | 500 kts | 108° |
| 2026-05-07 14:42 | 21.54236 | 57.82026 | 36826 ft | 500 kts | 108° |
| 2026-05-07 14:42 | 21.52196 | 57.89122 | 36829 ft | 500 kts | 108° |
| 2026-05-07 14:43 | 21.50174 | 57.96272 | 36825 ft | 501 kts | 108° |
| 2026-05-07 14:43 | 21.48158 | 58.03427 | 36825 ft | 501 kts | 108° |
| 2026-05-07 14:44 | 21.46136 | 58.10584 | 36824 ft | 501 kts | 108° |
| 2026-05-07 14:44 | 21.44110 | 58.17735 | 36825 ft | 501 kts | 108° |
| 2026-05-07 14:45 | 21.42080 | 58.24885 | 36825 ft | 501 kts | 108° |
| 2026-05-07 14:45 | 21.40050 | 58.32026 | 36823 ft | 501 kts | 108° |
| 2026-05-07 14:46 | 21.38013 | 58.39175 | 36823 ft | 500 kts | 108° |
| 2026-05-07 14:46 | 21.35977 | 58.46311 | 36824 ft | 500 kts | 108° |
| 2026-05-07 14:47 | 21.33939 | 58.53443 | 36826 ft | 500 kts | 108° |
| 2026-05-07 14:47 | 21.31899 | 58.60571 | 36826 ft | 500 kts | 108° |
| 2026-05-07 14:48 | 21.29857 | 58.67693 | 36825 ft | 500 kts | 108° |
| 2026-05-07 14:48 | 21.27815 | 58.74815 | 36824 ft | 499 kts | 108° |
| 2026-05-07 14:49 | 21.25781 | 58.81878 | 36823 ft | 499 kts | 108° |
| 2026-05-07 14:49 | 21.23728 | 58.88983 | 36824 ft | 499 kts | 108° |
| 2026-05-07 14:50 | 21.21676 | 58.96087 | 36822 ft | 499 kts | 108° |
| 2026-05-07 14:50 | 21.19623 | 59.03193 | 36821 ft | 499 kts | 108° |
| 2026-05-07 14:51 | 21.17569 | 59.10293 | 36823 ft | 499 kts | 108° |
| 2026-05-07 14:51 | 21.15512 | 59.17391 | 36821 ft | 499 kts | 108° |
| 2026-05-07 14:52 | 21.13450 | 59.24493 | 36821 ft | 499 kts | 108° |
| 2026-05-07 14:52 | 21.11387 | 59.31585 | 36824 ft | 499 kts | 108° |
| 2026-05-07 14:53 | 21.09322 | 59.38676 | 36825 ft | 499 kts | 108° |
| 2026-05-07 14:53 | 21.07252 | 59.45770 | 36825 ft | 499 kts | 108° |
| 2026-05-07 14:54 | 21.05183 | 59.52853 | 36826 ft | 499 kts | 108° |
| 2026-05-07 14:54 | 21.03110 | 59.59938 | 36827 ft | 499 kts | 108° |
| 2026-05-07 14:55 | 21.01051 | 59.66968 | 36828 ft | 498 kts | 108° |
| 2026-05-07 14:55 | 20.98948 | 59.74035 | 36830 ft | 498 kts | 109° |
| 2026-05-07 14:56 | 20.96791 | 59.81085 | 36832 ft | 498 kts | 109° |
| 2026-05-07 14:56 | 20.94632 | 59.88131 | 36831 ft | 498 kts | 109° |
| 2026-05-07 14:57 | 20.92482 | 59.95175 | 36832 ft | 498 kts | 109° |
| 2026-05-07 14:57 | 20.90331 | 60.02223 | 36834 ft | 498 kts | 109° |
| 2026-05-07 14:58 | 20.88182 | 60.09256 | 36835 ft | 498 kts | 109° |